createdAt,value
2022-09-03T00:02:22.610Z,47.95
2022-09-03T00:05:12.543Z,47.86
2022-09-03T00:08:03.886Z,48.60
2022-09-03T00:10:38.137Z,47.50
2022-09-03T00:13:05.738Z,47.68
2022-09-03T00:15:33.838Z,47.14
2022-09-03T00:18:14.397Z,47.47
2022-09-03T00:20:50.042Z,47.91
2022-09-03T00:23:23.521Z,48.00
2022-09-03T00:26:14.877Z,48.30
2022-09-03T00:29:00.040Z,47.88
2022-09-03T00:31:39.369Z,47.72
2022-09-03T00:34:22.132Z,48.73
2022-09-03T00:36:50.038Z,48.12
2022-09-03T00:39:19.094Z,47.86
2022-09-03T00:42:08.350Z,47.46
2022-09-03T00:44:50.907Z,47.03
2022-09-03T00:47:32.992Z,47.67
2022-09-03T00:50:31.385Z,46.90
2022-09-03T00:53:09.998Z,47.80
2022-09-03T00:55:48.539Z,47.06
2022-09-03T00:58:27.807Z,47.01
2022-09-03T01:00:54.406Z,47.60
2022-09-03T01:03:59.385Z,46.99
2022-09-03T01:06:38.114Z,48.13
2022-09-03T01:09:20.467Z,47.90
2022-09-03T01:12:03.028Z,47.30
2022-09-03T01:14:36.567Z,48.08
2022-09-03T01:17:37.307Z,47.18
2022-09-03T01:20:55.097Z,46.88
2022-09-03T01:23:48.627Z,47.20
2022-09-03T01:26:47.866Z,47.45
2022-09-03T01:29:35.497Z,47.08
2022-09-03T01:32:29.103Z,47.01
2022-09-03T01:35:10.881Z,46.84
2022-09-03T01:38:16.050Z,47.19
2022-09-03T01:41:20.788Z,45.57
2022-09-03T01:44:04.156Z,45.52
2022-09-03T01:46:38.528Z,45.92
2022-09-03T01:49:22.579Z,46.32
2022-09-03T01:52:03.852Z,46.10
2022-09-03T01:54:51.747Z,46.17
2022-09-03T01:57:44.264Z,47.17
2022-09-03T02:00:13.809Z,46.70
2022-09-03T02:02:43.533Z,47.09
2022-09-03T02:05:24.618Z,47.06
2022-09-03T02:08:02.876Z,46.85
2022-09-03T02:10:43.188Z,46.72
2022-09-03T02:13:16.868Z,46.86
2022-09-03T02:15:48.330Z,46.19
2022-09-03T02:18:18.008Z,46.01
2022-09-03T02:20:46.785Z,46.66
2022-09-03T02:23:13.942Z,46.37
2022-09-03T02:25:44.331Z,46.53
2022-09-03T02:28:17.343Z,46.56
2022-09-03T02:30:50.811Z,46.74
2022-09-03T02:33:17.659Z,46.90
2022-09-03T02:35:44.799Z,46.68
2022-09-03T02:38:13.640Z,46.68
2022-09-03T02:40:40.286Z,47.54
2022-09-03T02:43:16.301Z,47.19
2022-09-03T02:45:47.438Z,46.84
2022-09-03T02:48:17.760Z,46.36
2022-09-03T02:50:44.314Z,46.89
2022-09-03T02:53:10.899Z,46.96
2022-09-03T02:55:37.535Z,47.35
2022-09-03T02:58:06.804Z,47.20
2022-09-03T03:00:33.542Z,47.69
2022-09-03T03:03:01.606Z,47.46
2022-09-03T03:05:45.821Z,47.12
2022-09-03T03:08:15.312Z,47.52
2022-09-03T03:10:44.966Z,48.60
2022-09-03T03:13:12.572Z,48.42
2022-09-03T03:15:39.308Z,48.25
2022-09-03T03:18:07.496Z,47.96
2022-09-03T03:20:34.618Z,48.95
2022-09-03T03:23:05.556Z,48.68
2022-09-03T03:25:36.760Z,48.20
2022-09-03T03:28:05.101Z,49.21
2022-09-03T03:30:32.667Z,49.20
2022-09-03T03:32:59.700Z,49.21
2022-09-03T03:35:26.424Z,49.22
2022-09-03T03:37:52.994Z,49.19
2022-09-03T03:40:20.488Z,49.55
2022-09-03T03:42:47.079Z,49.03
2022-09-03T03:45:13.633Z,49.38
2022-09-03T03:47:40.751Z,49.21
2022-09-03T03:50:08.128Z,49.33
2022-09-03T03:52:34.761Z,50.07
2022-09-03T03:55:01.405Z,48.86
2022-09-03T03:57:30.437Z,49.30
2022-09-03T03:59:57.044Z,49.58
2022-09-03T04:02:23.777Z,49.47
2022-09-03T04:04:50.433Z,49.31
2022-09-03T04:07:17.232Z,49.61
2022-09-03T04:09:43.779Z,49.12
2022-09-03T04:12:10.286Z,48.76
2022-09-03T04:14:36.847Z,49.29
2022-09-03T04:17:03.611Z,49.34
2022-09-03T04:19:30.316Z,49.20
2022-09-03T04:21:57.585Z,49.16
2022-09-03T04:24:24.143Z,48.81
2022-09-03T04:26:51.714Z,48.82
2022-09-03T04:29:18.410Z,49.25
2022-09-03T04:32:04.994Z,49.45
2022-09-03T04:34:31.900Z,49.92
2022-09-03T04:36:59.116Z,49.33
2022-09-03T04:39:26.109Z,50.18
2022-09-03T04:41:52.783Z,49.64
2022-09-03T04:44:19.383Z,50.11
2022-09-03T04:46:47.875Z,49.41
2022-09-03T04:49:15.164Z,49.12
2022-09-03T04:51:41.926Z,49.45
2022-09-03T04:54:10.266Z,49.91
2022-09-03T04:56:38.812Z,49.41
2022-09-03T04:59:08.524Z,49.53
2022-09-03T05:01:36.981Z,49.49
2022-09-03T05:04:04.848Z,49.70
2022-09-03T05:06:32.516Z,49.87
2022-09-03T05:08:59.437Z,50.21
2022-09-03T05:11:27.649Z,49.50
2022-09-03T05:13:56.282Z,49.24
2022-09-03T05:16:23.874Z,50.01
2022-09-03T05:18:54.041Z,49.43
2022-09-03T05:21:20.945Z,49.40
2022-09-03T05:23:50.664Z,49.77
2022-09-03T05:26:20.326Z,48.38
2022-09-03T05:28:47.798Z,49.61
2022-09-03T05:31:16.858Z,49.25
2022-09-03T05:33:47.965Z,48.53
2022-09-03T05:36:16.536Z,49.02
2022-09-03T05:38:43.807Z,49.32
2022-09-03T05:41:12.580Z,50.16
2022-09-03T05:43:39.537Z,49.84
2022-09-03T05:46:11.580Z,50.23
2022-09-03T05:48:40.129Z,50.14
2022-09-03T05:51:16.496Z,50.37
2022-09-03T05:53:47.985Z,49.31
2022-09-03T05:56:18.069Z,49.61
2022-09-03T05:58:51.039Z,48.88
2022-09-03T06:01:20.058Z,49.51
2022-09-03T06:03:48.924Z,48.88
2022-09-03T06:06:16.288Z,49.39
2022-09-03T06:08:44.876Z,48.95
2022-09-03T06:11:11.823Z,49.65
2022-09-03T06:13:38.468Z,48.83
2022-09-03T06:16:06.879Z,48.05
2022-09-03T06:18:33.490Z,48.17
2022-09-03T06:21:05.450Z,48.60
2022-09-03T06:23:33.749Z,48.95
2022-09-03T06:26:05.119Z,48.77
2022-09-03T06:28:37.919Z,48.24
2022-09-03T06:31:07.488Z,49.27
2022-09-03T06:33:36.149Z,49.22
2022-09-03T06:36:08.829Z,49.36
2022-09-03T06:38:36.828Z,49.48
2022-09-03T06:41:06.363Z,49.33
2022-09-03T06:43:35.011Z,49.22
2022-09-03T06:46:07.801Z,49.66
2022-09-03T06:48:35.392Z,49.40
2022-09-03T06:51:07.772Z,48.90
2022-09-03T06:53:37.006Z,48.60
2022-09-03T06:56:07.598Z,48.33
2022-09-03T06:58:37.745Z,48.78
2022-09-03T07:01:13.062Z,48.68
2022-09-03T07:03:41.566Z,48.66
2022-09-03T07:06:11.517Z,48.67
2022-09-03T07:08:38.380Z,48.60
2022-09-03T07:11:09.239Z,48.59
2022-09-03T07:13:44.132Z,48.91
2022-09-03T07:16:19.483Z,48.99
2022-09-03T07:18:46.670Z,49.19
2022-09-03T07:21:15.161Z,47.85
2022-09-03T07:23:41.994Z,48.13
2022-09-03T07:26:12.205Z,47.99
2022-09-03T07:28:40.244Z,47.99
2022-09-03T07:31:29.129Z,47.21
2022-09-03T07:33:58.524Z,47.23
2022-09-03T07:36:27.764Z,46.27
2022-09-03T07:38:58.810Z,45.87
2022-09-03T07:41:28.978Z,46.10
2022-09-03T07:43:57.263Z,45.53
2022-09-03T07:46:27.269Z,46.10
2022-09-03T07:48:56.078Z,45.52
2022-09-03T07:51:26.671Z,46.47
2022-09-03T07:54:02.366Z,46.52
2022-09-03T07:56:31.225Z,45.72
2022-09-03T07:58:59.134Z,45.97
2022-09-03T08:01:28.537Z,46.56
2022-09-03T08:03:55.781Z,46.37
2022-09-03T08:06:27.798Z,47.31
2022-09-03T08:09:04.618Z,46.67
2022-09-03T08:11:34.660Z,45.92
2022-09-03T08:14:06.193Z,45.33
2022-09-03T08:16:39.525Z,44.23
2022-09-03T08:19:07.392Z,45.40
2022-09-03T08:21:34.044Z,44.69
2022-09-03T08:24:02.903Z,44.29
2022-09-03T08:26:31.888Z,45.41
2022-09-03T08:28:59.331Z,45.66
2022-09-03T08:31:27.948Z,45.62
2022-09-03T08:33:57.176Z,45.43
2022-09-03T08:36:30.034Z,44.51
2022-09-03T08:38:59.390Z,44.89
2022-09-03T08:41:34.070Z,46.06
2022-09-03T08:44:10.224Z,46.03
2022-09-03T08:46:47.309Z,45.94
2022-09-03T08:49:16.843Z,45.84
2022-09-03T08:51:44.691Z,44.63
2022-09-03T08:54:12.561Z,43.95
2022-09-03T08:56:41.283Z,43.16
2022-09-03T08:59:08.332Z,41.53
2022-09-03T09:01:44.124Z,41.43
2022-09-03T09:04:41.262Z,43.33
2022-09-03T09:07:17.667Z,42.90
2022-09-03T09:09:54.014Z,41.87
2022-09-03T09:12:42.686Z,42.55
2022-09-03T09:15:32.369Z,41.25
2022-09-03T09:18:10.975Z,42.30
2022-09-03T09:20:59.634Z,42.16
2022-09-03T09:23:33.581Z,43.57
2022-09-03T09:26:01.228Z,43.86
2022-09-03T09:28:33.872Z,45.21
2022-09-03T09:31:02.280Z,45.28
2022-09-03T09:33:31.289Z,44.10
2022-09-03T09:36:04.139Z,44.17
2022-09-03T09:38:33.586Z,43.41
2022-09-03T09:41:11.435Z,44.99
2022-09-03T09:43:39.106Z,45.42
2022-09-03T09:46:36.507Z,47.18
2022-09-03T09:49:09.110Z,45.77
2022-09-03T09:51:36.132Z,46.24
2022-09-03T09:54:19.980Z,45.53
2022-09-03T09:57:00.503Z,44.96
2022-09-03T09:59:27.087Z,43.48
2022-09-03T10:02:10.696Z,43.78
2022-09-03T10:04:40.488Z,43.71
2022-09-03T10:07:32.123Z,43.58
2022-09-03T10:10:05.670Z,43.47
2022-09-03T10:12:59.181Z,43.82
2022-09-03T10:15:33.006Z,45.28
2022-09-03T10:18:11.103Z,44.59
2022-09-03T10:20:58.837Z,44.87
2022-09-03T10:23:28.297Z,44.19
2022-09-03T10:26:07.364Z,45.61
2022-09-03T10:28:41.888Z,44.72
2022-09-03T10:31:19.048Z,43.08
2022-09-03T10:34:13.592Z,44.80
2022-09-03T10:37:05.048Z,44.15
2022-09-03T10:39:43.025Z,44.10
2022-09-03T10:42:22.079Z,43.06
2022-09-03T10:45:10.452Z,42.97
2022-09-03T10:48:01.307Z,42.54
2022-09-03T10:50:31.955Z,42.53
2022-09-03T10:53:12.047Z,41.80
2022-09-03T10:56:26.801Z,40.31
2022-09-03T10:58:58.951Z,42.60
2022-09-03T11:01:53.732Z,42.21
2022-09-03T11:04:37.853Z,41.19
2022-09-03T11:07:07.790Z,43.37
2022-09-03T11:10:00.450Z,43.54
2022-09-03T11:12:37.032Z,41.06
2022-09-03T11:15:28.447Z,42.51
2022-09-03T11:17:59.818Z,41.90
2022-09-03T11:20:27.692Z,43.51
2022-09-03T11:23:00.335Z,41.64
2022-09-03T11:25:36.805Z,43.20
2022-09-03T11:28:12.491Z,42.26
2022-09-03T11:30:49.836Z,42.66
2022-09-03T11:33:20.006Z,43.66
2022-09-03T11:35:46.780Z,41.19
2022-09-03T11:38:21.076Z,41.51
2022-09-03T11:41:22.779Z,42.20
2022-09-03T11:43:49.406Z,43.21
2022-09-03T11:46:22.200Z,43.63
2022-09-03T11:48:49.482Z,42.87
2022-09-03T11:51:25.130Z,42.86
2022-09-03T11:54:23.820Z,42.88
2022-09-03T11:56:50.638Z,42.67
2022-09-03T11:59:20.010Z,42.74
2022-09-03T12:01:53.675Z,42.44
2022-09-03T12:04:29.355Z,43.28
2022-09-03T12:07:20.186Z,42.73
2022-09-03T12:10:02.444Z,45.01
2022-09-03T12:12:48.435Z,44.41
2022-09-03T12:15:23.504Z,45.26
2022-09-03T12:18:20.983Z,46.08
2022-09-03T12:21:00.234Z,46.49
2022-09-03T12:23:35.892Z,47.74
2022-09-03T12:26:06.451Z,47.88
2022-09-03T12:28:37.205Z,48.18
2022-09-03T12:31:20.246Z,48.83
2022-09-03T12:33:55.677Z,49.19
2022-09-03T12:36:23.076Z,49.20
2022-09-03T12:39:10.964Z,49.32
2022-09-03T12:41:37.765Z,50.01
2022-09-03T12:44:05.461Z,49.21
2022-09-03T12:46:34.054Z,50.18
2022-09-03T12:52:30.849Z,54.24
2022-09-03T12:54:59.878Z,55.35
2022-09-03T12:57:42.594Z,55.66
2022-09-03T13:00:13.638Z,56.35
2022-09-03T13:02:49.287Z,56.92
2022-09-03T13:05:19.623Z,57.42
2022-09-03T13:07:51.616Z,58.51
2022-09-03T13:10:26.895Z,59.72
2022-09-03T13:12:58.939Z,60.67
2022-09-03T13:15:26.011Z,62.98
2022-09-03T13:18:16.102Z,62.71
2022-09-03T13:20:54.615Z,65.95
2022-09-03T13:23:45.640Z,65.25
2022-09-03T13:26:30.811Z,66.63
2022-09-03T13:29:41.547Z,67.53
2022-09-03T13:32:17.227Z,66.54
2022-09-03T13:34:52.338Z,67.17
2022-09-03T13:37:42.441Z,66.25
2022-09-03T13:40:27.409Z,67.16
2022-09-03T13:42:58.706Z,67.68
2022-09-03T13:45:29.814Z,67.61
2022-09-03T13:48:18.800Z,65.92
2022-09-03T13:50:57.687Z,66.97
2022-09-03T13:53:42.530Z,66.69
2022-09-03T13:56:18.171Z,65.96
2022-09-03T13:58:48.245Z,65.25
2022-09-03T14:01:32.818Z,64.39
2022-09-03T14:04:02.863Z,66.17
2022-09-03T14:06:47.050Z,66.05
2022-09-03T14:09:44.810Z,64.58
2022-09-03T14:12:15.186Z,65.02
2022-09-03T14:15:06.766Z,64.01
2022-09-03T14:17:59.765Z,61.40
2022-09-03T14:20:34.040Z,60.99
2022-09-03T14:23:05.247Z,61.76
2022-09-03T14:25:33.158Z,60.96
2022-09-03T14:28:30.340Z,61.88
2022-09-03T14:31:19.117Z,61.07
2022-09-03T14:33:55.759Z,61.90
2022-09-03T14:36:29.742Z,60.97
2022-09-03T14:39:14.952Z,60.52
2022-09-03T14:41:57.939Z,59.83
2022-09-03T14:44:51.280Z,59.54
2022-09-03T14:47:30.453Z,58.39
2022-09-03T14:50:03.046Z,58.69
2022-09-03T14:52:38.505Z,59.08
2022-09-03T14:55:14.228Z,60.25
2022-09-03T14:57:46.443Z,60.32
2022-09-03T15:00:20.318Z,59.91
2022-09-03T15:03:03.115Z,61.31
2022-09-03T15:05:56.283Z,61.58
2022-09-03T15:08:33.832Z,61.78
2022-09-03T15:11:14.803Z,62.55
2022-09-03T15:13:48.834Z,63.48
2022-09-03T15:16:37.631Z,64.40
2022-09-03T15:19:30.479Z,63.42
2022-09-03T15:22:14.654Z,64.06
2022-09-03T15:24:54.879Z,64.82
2022-09-03T15:27:36.997Z,64.85
2022-09-03T15:30:15.728Z,66.59
2022-09-03T15:32:47.863Z,66.75
2022-09-03T15:35:40.413Z,60.86
2022-09-03T15:38:14.256Z,63.72
2022-09-03T15:40:42.351Z,61.16
2022-09-03T15:43:12.593Z,61.36
2022-09-03T15:45:48.431Z,62.19
2022-09-03T15:48:46.022Z,61.54
2022-09-03T15:51:18.386Z,64.54
2022-09-03T15:54:03.535Z,63.43
2022-09-03T15:57:06.046Z,62.27
2022-09-03T15:59:41.628Z,63.11
2022-09-03T16:02:12.609Z,64.61
2022-09-03T16:04:50.709Z,64.36
2022-09-03T16:07:42.355Z,64.26
2022-09-03T16:10:25.333Z,64.16
2022-09-03T16:13:03.952Z,62.96
2022-09-03T16:15:43.442Z,64.75
2022-09-03T16:18:35.774Z,63.79
2022-09-03T16:21:07.869Z,63.68
2022-09-03T16:23:52.304Z,64.76
2022-09-03T16:26:41.205Z,64.29
2022-09-03T16:29:17.682Z,63.70
2022-09-03T16:31:50.048Z,63.84
2022-09-03T16:34:35.303Z,64.19
2022-09-03T16:37:08.348Z,63.40
2022-09-03T16:39:41.071Z,62.48
2022-09-03T16:42:11.927Z,60.95
2022-09-03T16:44:59.801Z,56.57
2022-09-03T16:47:35.875Z,57.41
2022-09-03T16:50:21.122Z,57.10
2022-09-03T16:53:19.790Z,54.33
2022-09-03T16:56:34.123Z,55.79
2022-09-03T16:59:06.297Z,53.64
2022-09-03T17:01:35.750Z,50.01
2022-09-03T17:04:45.487Z,55.20
2022-09-03T17:07:46.224Z,56.04
2022-09-03T17:10:25.836Z,56.25
2022-09-03T17:12:52.350Z,57.61
2022-09-03T17:15:40.722Z,57.75
2022-09-03T17:18:16.228Z,59.15
2022-09-03T17:20:53.586Z,59.70
2022-09-03T17:23:52.153Z,60.45
2022-09-03T17:26:26.676Z,61.04
2022-09-03T17:29:25.240Z,61.54
2022-09-03T17:32:27.986Z,63.10
2022-09-03T17:35:05.416Z,63.33
2022-09-03T17:37:52.729Z,62.76
2022-09-03T17:40:56.376Z,63.42
2022-09-03T17:43:24.823Z,63.38
2022-09-03T17:46:08.467Z,64.09
2022-09-03T17:48:54.158Z,64.55
2022-09-03T17:51:35.234Z,64.79
2022-09-03T17:54:20.134Z,64.35
2022-09-03T17:57:00.826Z,64.31
2022-09-03T17:59:46.127Z,64.20
2022-09-03T18:02:32.350Z,65.01
2022-09-03T18:05:23.886Z,64.83
2022-09-03T18:08:08.563Z,65.45
2022-09-03T18:10:44.173Z,64.75
2022-09-03T18:13:23.786Z,65.25
2022-09-03T18:16:14.828Z,64.47
2022-09-03T18:18:51.452Z,64.73
2022-09-03T18:21:40.772Z,64.66
2022-09-03T18:24:51.316Z,65.19
2022-09-03T18:27:46.503Z,64.63
2022-09-03T18:30:33.821Z,63.94
2022-09-03T18:33:19.073Z,64.49
2022-09-03T18:36:05.798Z,64.59
2022-09-03T18:38:58.332Z,64.77
2022-09-03T18:42:09.839Z,64.90
2022-09-03T18:45:47.297Z,64.35
2022-09-03T18:49:13.503Z,64.91
2022-09-03T18:52:21.528Z,64.96
2022-09-03T18:55:13.811Z,65.09
2022-09-03T18:58:42.154Z,64.30
2022-09-03T19:01:40.223Z,64.95
2022-09-03T19:04:52.664Z,65.29
2022-09-03T19:08:00.060Z,65.10
2022-09-03T19:11:16.067Z,65.54
2022-09-03T19:14:01.297Z,65.35
2022-09-03T19:16:52.592Z,65.55
2022-09-03T19:19:53.612Z,65.84
2022-09-03T19:22:55.217Z,66.10
2022-09-03T19:25:42.038Z,65.69
2022-09-03T19:28:40.493Z,65.43
2022-09-03T19:31:38.127Z,65.16
2022-09-03T19:34:45.629Z,65.11
2022-09-03T19:37:37.897Z,65.11
2022-09-03T19:40:46.846Z,65.24
2022-09-03T19:43:57.633Z,65.68
2022-09-03T19:47:10.896Z,65.26
2022-09-03T19:50:08.516Z,65.63
2022-09-03T19:53:09.117Z,65.93
2022-09-03T19:56:02.840Z,66.03
2022-09-03T19:58:52.673Z,66.33
2022-09-03T20:01:38.991Z,66.35
2022-09-03T20:05:19.368Z,66.06
2022-09-03T20:08:06.841Z,66.07
2022-09-03T20:10:34.935Z,66.07
2022-09-03T20:13:17.147Z,66.01
2022-09-03T20:15:59.585Z,66.30
2022-09-03T20:18:56.493Z,66.46
2022-09-03T20:21:40.134Z,66.65
2022-09-03T20:24:28.216Z,66.79
2022-09-03T20:27:17.449Z,66.90
2022-09-03T20:30:02.070Z,67.11
2022-09-03T20:32:42.886Z,67.53
2022-09-03T20:35:37.353Z,67.60
2022-09-03T20:38:06.661Z,67.81
2022-09-03T20:40:48.720Z,67.59
2022-09-03T20:43:33.329Z,66.80
2022-09-03T20:46:37.358Z,67.33
2022-09-03T20:49:03.903Z,67.26
2022-09-03T20:51:39.362Z,67.36
2022-09-03T20:54:09.487Z,67.61
2022-09-03T20:56:36.469Z,67.75
2022-09-03T20:59:30.381Z,68.09
2022-09-03T21:02:09.286Z,68.25
2022-09-03T21:04:47.980Z,67.38
2022-09-03T21:07:41.488Z,67.49
2022-09-03T21:10:31.921Z,67.61
2022-09-03T21:13:12.470Z,67.99
2022-09-03T21:15:39.301Z,68.56
2022-09-03T21:18:12.783Z,68.39
2022-09-03T21:20:46.411Z,68.19
2022-09-03T21:23:26.185Z,69.24
2022-09-03T21:26:02.374Z,69.39
2022-09-03T21:28:40.318Z,69.13
2022-09-03T21:31:19.905Z,68.71
2022-09-03T21:33:54.123Z,68.84
2022-09-03T21:36:30.262Z,69.32
2022-09-03T21:39:20.938Z,69.72
2022-09-03T21:41:55.635Z,69.68
2022-09-03T21:44:42.404Z,69.78
2022-09-03T21:47:18.484Z,69.78
2022-09-03T21:50:16.775Z,70.39
2022-09-03T21:52:59.079Z,70.69
2022-09-03T21:56:04.222Z,71.47
2022-09-03T21:58:36.779Z,71.08
2022-09-03T22:01:12.993Z,70.30
2022-09-03T22:03:41.415Z,69.38
2022-09-03T22:06:14.519Z,69.15
2022-09-03T22:08:49.192Z,68.86
2022-09-03T22:11:21.729Z,69.36
2022-09-03T22:14:01.082Z,69.34
2022-09-03T22:16:41.063Z,68.97
2022-09-03T22:19:16.312Z,69.21
2022-09-03T22:22:00.221Z,69.60
2022-09-03T22:24:34.549Z,69.13
2022-09-03T22:27:14.606Z,69.24
2022-09-03T22:30:26.244Z,68.63
2022-09-03T22:33:15.744Z,69.20
2022-09-03T22:36:35.463Z,69.00
2022-09-03T22:39:15.805Z,68.01
2022-09-03T22:42:07.739Z,67.75
2022-09-03T22:45:15.212Z,67.87
2022-09-03T22:48:25.091Z,68.28
2022-09-03T22:51:21.487Z,67.51
2022-09-03T22:55:21.274Z,68.25
2022-09-03T23:00:57.694Z,68.36
2022-09-03T23:07:00.214Z,68.78
2022-09-03T23:09:36.965Z,68.35
2022-09-03T23:12:16.321Z,68.06
2022-09-03T23:14:59.581Z,67.72
2022-09-03T23:17:44.039Z,67.83
2022-09-03T23:20:32.301Z,68.06
2022-09-03T23:23:29.695Z,70.87
2022-09-03T23:26:51.073Z,72.47
2022-09-03T23:29:31.889Z,72.74
2022-09-03T23:32:14.720Z,72.68
2022-09-03T23:34:57.884Z,73.49
2022-09-03T23:38:23.008Z,74.19
2022-09-03T23:41:05.207Z,74.43
2022-09-03T23:43:56.217Z,74.18
2022-09-03T23:47:13.077Z,75.41
2022-09-03T23:50:14.481Z,75.50
2022-09-03T23:53:22.143Z,76.47
2022-09-03T23:56:07.417Z,77.69
2022-09-03T23:59:00.423Z,76.54
